createdAt,value
2022-12-12T00:00:49.122Z,1.30
2022-12-12T00:04:50.747Z,1.20
2022-12-12T00:08:52.532Z,1.20
2022-12-12T00:12:54.212Z,1.20
2022-12-12T00:16:55.879Z,1.20
2022-12-12T00:20:57.977Z,1.20
2022-12-12T00:24:59.675Z,1.20
2022-12-12T00:29:04.432Z,1.20
2022-12-12T00:33:06.045Z,1.20
2022-12-12T00:37:07.674Z,1.30
2022-12-12T00:41:09.595Z,1.30
2022-12-12T00:45:11.785Z,1.30
2022-12-12T00:49:14.449Z,1.30
2022-12-12T00:53:16.487Z,1.20
2022-12-12T00:57:18.188Z,1.20
2022-12-12T01:01:23.811Z,1.30
2022-12-12T01:05:26.672Z,1.30
2022-12-12T01:09:28.313Z,1.30
2022-12-12T01:13:30.239Z,1.30
2022-12-12T01:17:37.527Z,1.30
2022-12-12T01:21:39.188Z,1.30
2022-12-12T01:25:41.343Z,1.30
2022-12-12T01:29:42.967Z,1.20
2022-12-12T01:33:45.925Z,1.20
2022-12-12T01:37:49.173Z,1.20
2022-12-12T01:41:50.779Z,1.20
2022-12-12T01:45:58.616Z,1.20
2022-12-12T01:50:08.208Z,1.20
2022-12-12T01:54:19.688Z,1.20
2022-12-12T01:58:21.478Z,1.10
2022-12-12T02:02:23.225Z,1.10
2022-12-12T02:06:27.736Z,1.10
2022-12-12T02:10:29.963Z,1.10
2022-12-12T02:14:41.902Z,1.00
2022-12-12T02:19:11.612Z,1.00
2022-12-12T02:23:34.390Z,0.90
2022-12-12T02:28:03.527Z,0.70
2022-12-12T02:32:36.035Z,0.60
2022-12-12T02:37:03.174Z,0.50
2022-12-12T02:41:23.509Z,0.40
2022-12-12T02:45:34.454Z,0.20
2022-12-12T02:49:48.686Z,0.10
2022-12-12T02:53:50.415Z,0.10
2022-12-12T02:57:54.029Z,0.20
2022-12-12T03:02:23.519Z,0.20
2022-12-12T03:07:00.850Z,0.30
2022-12-12T03:11:07.928Z,0.30
2022-12-12T03:15:14.614Z,0.30
2022-12-12T03:19:30.403Z,0.40
2022-12-12T03:23:38.382Z,0.40
2022-12-12T03:27:56.205Z,0.40
2022-12-12T03:32:07.062Z,0.50
2022-12-12T03:36:21.877Z,0.60
2022-12-12T03:40:30.491Z,0.60
2022-12-12T03:44:41.661Z,0.60
2022-12-12T03:49:05.614Z,0.60
2022-12-12T03:53:13.408Z,0.70
2022-12-12T03:57:22.059Z,0.70
2022-12-12T04:01:30.938Z,0.70
2022-12-12T04:05:39.183Z,0.70
2022-12-12T04:09:59.683Z,0.70
2022-12-12T04:14:41.653Z,0.80
2022-12-12T04:18:52.374Z,0.80
2022-12-12T04:23:30.582Z,0.70
2022-12-12T04:27:41.292Z,0.80
2022-12-12T04:32:07.477Z,0.70
2022-12-12T04:36:11.266Z,0.70
2022-12-12T04:40:34.984Z,0.80
2022-12-12T04:44:40.073Z,0.70
2022-12-12T04:48:53.540Z,0.70
2022-12-12T04:52:58.038Z,0.70
2022-12-12T04:57:03.654Z,0.60
2022-12-12T05:01:23.687Z,0.60
2022-12-12T05:05:57.955Z,0.60
2022-12-12T05:10:00.047Z,0.50
2022-12-12T05:14:01.727Z,0.50
2022-12-12T05:18:07.666Z,0.50
2022-12-12T05:22:09.270Z,0.40
2022-12-12T05:26:22.184Z,0.40
2022-12-12T05:30:24.069Z,0.30
2022-12-12T05:34:25.773Z,0.20
2022-12-12T05:38:27.423Z,0.10
2022-12-12T05:42:29.469Z,0.10
2022-12-12T05:46:31.164Z,0.00
2022-12-12T05:50:32.809Z,0.00
2022-12-12T05:54:34.426Z,-0.10
2022-12-12T05:58:36.077Z,0.00
2022-12-12T06:02:37.830Z,0.00
2022-12-12T06:06:39.596Z,0.00
2022-12-12T06:10:41.325Z,0.00
2022-12-12T06:14:42.925Z,0.10
2022-12-12T06:18:49.653Z,0.20
2022-12-12T06:22:53.759Z,0.30
2022-12-12T06:26:55.842Z,0.30
2022-12-12T06:30:57.721Z,0.30
2022-12-12T06:34:59.474Z,0.40
2022-12-12T06:39:01.515Z,0.40
2022-12-12T06:43:03.153Z,0.50
2022-12-12T06:47:04.800Z,0.40
2022-12-12T06:51:09.020Z,0.50
2022-12-12T06:55:11.074Z,0.50
2022-12-12T06:59:13.500Z,0.60
2022-12-12T07:03:15.203Z,0.60
2022-12-12T07:07:17.146Z,0.60
2022-12-12T07:11:24.093Z,0.50
2022-12-12T07:15:25.696Z,0.50
2022-12-12T07:19:27.381Z,0.40
2022-12-12T07:23:29.019Z,0.40
2022-12-12T07:27:30.674Z,0.40
2022-12-12T07:31:32.561Z,0.30
2022-12-12T07:35:34.795Z,0.30
2022-12-12T07:39:37.118Z,0.30
2022-12-12T07:43:43.698Z,0.20
2022-12-12T07:47:46.894Z,0.10
2022-12-12T07:51:49.484Z,0.00
2022-12-12T07:55:51.273Z,-0.10
2022-12-12T07:59:52.888Z,-0.30
2022-12-12T08:03:54.639Z,-0.20
2022-12-12T08:07:56.359Z,-0.30
2022-12-12T08:11:59.626Z,-0.30
2022-12-12T08:16:01.437Z,-0.40
2022-12-12T08:20:03.677Z,-0.50
2022-12-12T08:24:05.599Z,-0.50
2022-12-12T08:28:07.223Z,-0.50
2022-12-12T08:32:08.892Z,-0.60
2022-12-12T08:36:25.683Z,-0.50
2022-12-12T08:40:27.314Z,-0.50
2022-12-12T08:44:28.983Z,-0.50
2022-12-12T08:48:30.785Z,-0.60
2022-12-12T08:52:32.590Z,-0.50
2022-12-12T08:56:34.327Z,-0.50
2022-12-12T09:00:36.570Z,-0.40
2022-12-12T09:04:38.426Z,-0.40
2022-12-12T09:08:40.553Z,-0.40
2022-12-12T09:12:42.435Z,-0.40
2022-12-12T09:16:44.141Z,-0.40
2022-12-12T09:20:54.547Z,-0.30
2022-12-12T09:24:56.206Z,-0.20
2022-12-12T09:28:57.869Z,-0.20
2022-12-12T09:32:59.526Z,-0.10
2022-12-12T09:37:01.563Z,-0.10
2022-12-12T09:41:09.345Z,-0.10
2022-12-12T09:45:11.649Z,0.00
2022-12-12T09:49:27.367Z,0.00
2022-12-12T09:53:29.204Z,-0.10
2022-12-12T09:57:48.208Z,0.00
2022-12-12T10:02:05.646Z,0.00
2022-12-12T10:06:36.552Z,0.10
2022-12-12T10:10:39.140Z,0.10
2022-12-12T10:14:48.411Z,0.30
2022-12-12T10:18:53.171Z,0.30
2022-12-12T10:23:14.931Z,0.30
2022-12-12T10:27:16.556Z,0.40
2022-12-12T10:31:18.315Z,0.40
2022-12-12T10:35:38.629Z,0.40
2022-12-12T10:39:40.255Z,0.40
2022-12-12T10:44:05.053Z,0.50
2022-12-12T10:48:06.795Z,0.60
2022-12-12T10:52:21.943Z,0.60
2022-12-12T10:56:26.491Z,0.80
2022-12-12T11:00:49.422Z,0.90
2022-12-12T11:05:02.620Z,0.80
2022-12-12T11:09:25.750Z,0.90
2022-12-12T11:13:27.528Z,1.00
2022-12-12T11:17:34.084Z,1.20
2022-12-12T11:21:36.899Z,1.10
2022-12-12T11:25:38.625Z,1.10
2022-12-12T11:29:40.257Z,1.40
2022-12-12T11:33:48.545Z,1.30
2022-12-12T11:37:59.143Z,1.20
2022-12-12T11:42:30.989Z,1.20
2022-12-12T11:46:33.460Z,1.30
2022-12-12T11:50:45.774Z,1.40
2022-12-12T11:54:47.587Z,1.50
2022-12-12T11:58:58.026Z,1.50
2022-12-12T12:03:29.134Z,1.40
2022-12-12T12:07:47.845Z,1.40
2022-12-12T12:12:04.262Z,1.50
2022-12-12T12:17:01.451Z,1.50
2022-12-12T12:21:26.840Z,1.60
2022-12-12T12:25:41.894Z,1.60
2022-12-12T12:30:21.183Z,1.60
2022-12-12T12:34:32.566Z,1.90
2022-12-12T12:39:08.372Z,1.70
2022-12-12T12:43:34.815Z,1.80
2022-12-12T12:48:08.792Z,1.80
2022-12-12T12:52:36.264Z,1.80
2022-12-12T12:56:48.847Z,1.70
2022-12-12T13:00:59.815Z,1.70
2022-12-12T13:05:11.865Z,1.70
2022-12-12T13:09:33.971Z,1.80
2022-12-12T13:13:39.712Z,1.80
2022-12-12T13:17:50.454Z,1.80
2022-12-12T13:22:02.366Z,1.80
2022-12-12T13:26:12.355Z,1.80
2022-12-12T13:30:23.935Z,2.00
2022-12-12T13:34:27.829Z,2.20
2022-12-12T13:38:33.838Z,2.30
2022-12-12T13:42:54.311Z,2.40
2022-12-12T13:46:55.991Z,2.20
2022-12-12T13:51:30.095Z,2.10
2022-12-12T13:55:32.259Z,1.90
2022-12-12T13:59:53.932Z,1.90
2022-12-12T14:03:55.750Z,2.00
2022-12-12T14:08:13.489Z,2.20
2022-12-12T14:12:32.183Z,2.30
2022-12-12T14:16:35.942Z,2.30
2022-12-12T14:20:42.623Z,2.10
2022-12-12T14:25:17.741Z,1.90
2022-12-12T14:29:19.328Z,1.80
2022-12-12T14:33:51.154Z,1.60
2022-12-12T14:38:27.803Z,1.60
2022-12-12T14:43:18.914Z,1.50
2022-12-12T14:46:51.518Z,1.30
2022-12-12T14:50:59.166Z,1.30
2022-12-12T14:55:05.283Z,1.10
2022-12-12T14:59:13.265Z,1.00
2022-12-12T15:03:15.527Z,0.80
2022-12-12T15:07:25.190Z,0.80
2022-12-12T15:11:31.254Z,0.60
2022-12-12T15:15:34.681Z,0.40
2022-12-12T15:19:43.475Z,0.20
2022-12-12T15:23:45.410Z,0.10
2022-12-12T15:27:55.693Z,0.00
2022-12-12T15:32:09.202Z,-0.20
2022-12-12T15:36:28.576Z,-0.30
2022-12-12T15:40:40.415Z,-0.40
2022-12-12T15:44:43.992Z,-0.50
2022-12-12T15:48:52.325Z,-0.60
2022-12-12T15:53:00.973Z,-0.70
2022-12-12T15:57:03.048Z,-0.80
2022-12-12T16:01:20.235Z,-0.90
2022-12-12T16:05:30.063Z,-0.90
2022-12-12T16:09:31.841Z,-0.90
2022-12-12T16:13:41.774Z,-1.00
2022-12-12T16:17:58.554Z,-1.00
2022-12-12T16:22:29.255Z,-1.10
2022-12-12T16:26:30.899Z,-1.20
2022-12-12T16:30:32.886Z,-1.20
2022-12-12T16:34:34.573Z,-1.30
2022-12-12T16:38:36.606Z,-1.30
2022-12-12T16:42:38.328Z,-1.40
2022-12-12T16:46:40.034Z,-1.40
2022-12-12T16:50:41.953Z,-1.50
2022-12-12T16:54:51.047Z,-1.50
2022-12-12T16:58:56.050Z,-1.50
2022-12-12T17:02:57.760Z,-1.50
2022-12-12T17:06:59.398Z,-1.60
2022-12-12T17:11:10.431Z,-1.60
2022-12-12T17:15:16.889Z,-1.70
2022-12-12T17:19:18.662Z,-1.70
2022-12-12T17:23:28.324Z,-1.70
2022-12-12T17:27:30.112Z,-1.70
2022-12-12T17:31:32.292Z,-1.80
2022-12-12T17:35:33.957Z,-1.80
2022-12-12T17:39:35.590Z,-1.90
2022-12-12T17:43:37.854Z,-1.90
2022-12-12T17:47:39.499Z,-1.90
2022-12-12T17:51:41.144Z,-2.00
2022-12-12T17:55:54.445Z,-2.00
2022-12-12T18:00:06.882Z,-2.00
2022-12-12T18:04:08.950Z,-2.00
2022-12-12T18:08:12.405Z,-2.00
2022-12-12T18:12:14.173Z,-2.10
2022-12-12T18:16:16.899Z,-2.20
2022-12-12T18:20:19.396Z,-2.20
2022-12-12T18:24:22.951Z,-2.20
2022-12-12T18:28:25.006Z,-2.30
2022-12-12T18:32:26.592Z,-2.30
2022-12-12T18:36:30.166Z,-2.30
2022-12-12T18:40:31.818Z,-2.40
2022-12-12T18:44:33.559Z,-2.30
2022-12-12T18:48:38.429Z,-2.30
2022-12-12T18:52:40.123Z,-2.50
2022-12-12T18:56:42.203Z,-2.40
2022-12-12T19:00:43.841Z,-2.40
2022-12-12T19:04:46.876Z,-2.50
2022-12-12T19:08:49.159Z,-2.50
2022-12-12T19:12:50.906Z,-2.50
2022-12-12T19:16:52.660Z,-2.60
2022-12-12T19:20:54.443Z,-2.60
2022-12-12T19:24:56.082Z,-2.60
2022-12-12T19:28:59.827Z,-2.60
2022-12-12T19:33:01.472Z,-2.60
2022-12-12T19:37:03.146Z,-2.70
2022-12-12T19:41:09.399Z,-2.70
2022-12-12T19:45:11.085Z,-2.70
2022-12-12T19:49:14.574Z,-2.80
2022-12-12T19:53:16.225Z,-2.80
2022-12-12T19:57:18.009Z,-2.80
2022-12-12T20:01:22.367Z,-2.80
2022-12-12T20:05:24.112Z,-2.90
2022-12-12T20:09:28.267Z,-2.90
2022-12-12T20:13:29.926Z,-2.90
2022-12-12T20:17:31.513Z,-3.00
2022-12-12T20:25:55.175Z,-3.00
2022-12-12T20:29:56.824Z,-3.00
2022-12-12T20:33:59.404Z,-3.00
2022-12-12T20:38:01.117Z,-3.10
2022-12-12T20:42:02.783Z,-3.10
2022-12-12T20:46:17.329Z,-3.10
2022-12-12T20:50:19.084Z,-3.10
2022-12-12T20:54:22.157Z,-3.20
2022-12-12T20:58:23.880Z,-3.20
2022-12-12T21:02:30.058Z,-3.20
2022-12-12T21:06:40.863Z,-3.30
2022-12-12T21:10:42.740Z,-3.30
2022-12-12T21:14:45.377Z,-3.30
2022-12-12T21:18:47.599Z,-3.40
2022-12-12T21:22:49.239Z,-3.40
2022-12-12T21:26:51.168Z,-3.40
2022-12-12T21:30:52.877Z,-3.50
2022-12-12T21:34:54.542Z,-3.50
2022-12-12T21:38:58.336Z,-3.50
2022-12-12T21:42:59.982Z,-3.60
2022-12-12T21:47:01.832Z,-3.60
2022-12-12T21:51:06.188Z,-3.60
2022-12-12T21:55:08.158Z,-3.70
2022-12-12T21:59:11.875Z,-3.70
2022-12-12T22:03:13.589Z,-3.70
2022-12-12T22:07:15.281Z,-3.70
2022-12-12T22:11:33.861Z,-3.70
2022-12-12T22:15:40.342Z,-3.80
2022-12-12T22:19:42.023Z,-3.80
2022-12-12T22:23:43.691Z,-3.80
2022-12-12T22:27:45.282Z,-3.80
2022-12-12T22:31:49.769Z,-3.80
2022-12-12T22:35:51.526Z,-3.90
2022-12-12T22:39:53.124Z,-3.90
2022-12-12T22:43:56.705Z,-3.90
2022-12-12T22:47:58.351Z,-4.00
2022-12-12T22:52:00.169Z,-4.00
2022-12-12T22:56:03.033Z,-4.00
2022-12-12T23:00:06.036Z,-4.00
2022-12-12T23:04:07.890Z,-4.00
2022-12-12T23:08:10.901Z,-4.10
2022-12-12T23:12:12.681Z,-4.10
2022-12-12T23:16:20.858Z,-4.10
2022-12-12T23:20:22.681Z,-4.20
2022-12-12T23:24:24.347Z,-4.10
2022-12-12T23:28:26.033Z,-4.10
2022-12-12T23:32:27.628Z,-4.20
2022-12-12T23:36:29.513Z,-4.20
2022-12-12T23:40:31.193Z,-4.20
2022-12-12T23:44:32.993Z,-4.30
2022-12-12T23:48:35.351Z,-4.20
2022-12-12T23:52:36.966Z,-4.30
2022-12-12T23:56:39.474Z,-4.30
